sensor_id;sensor_type;location;lat;lon;timestamp;P1;durP1;ratioP1;P2;durP2;ratioP2
9739;SDS011;4909;42.680;26.324;2024-03-23T00:51:42;118.93;;;61.87;;
9739;SDS011;4909;42.680;26.324;2024-03-23T00:54:08;123.17;;;63.57;;
9739;SDS011;4909;42.680;26.324;2024-03-23T00:56:35;121.00;;;61.33;;
9739;SDS011;4909;42.680;26.324;2024-03-23T00:59:01;122.03;;;63.73;;
9739;SDS011;4909;42.680;26.324;2024-03-23T01:01:28;122.37;;;62.87;;
9739;SDS011;4909;42.680;26.324;2024-03-23T01:03:54;119.13;;;63.20;;
9739;SDS011;4909;42.680;26.324;2024-03-23T01:06:21;125.37;;;63.73;;
9739;SDS011;4909;42.680;26.324;2024-03-23T01:08:48;118.53;;;61.63;;
9739;SDS011;4909;42.680;26.324;2024-03-23T01:11:15;121.10;;;61.97;;
9739;SDS011;4909;42.680;26.324;2024-03-23T01:13:41;118.57;;;61.03;;
9739;SDS011;4909;42.680;26.324;2024-03-23T01:16:08;115.90;;;59.60;;
9739;SDS011;4909;42.680;26.324;2024-03-23T01:18:34;117.80;;;62.57;;
9739;SDS011;4909;42.680;26.324;2024-03-23T01:21:01;131.47;;;65.10;;
9739;SDS011;4909;42.680;26.324;2024-03-23T01:23:28;120.23;;;60.63;;
9739;SDS011;4909;42.680;26.324;2024-03-23T01:25:55;121.13;;;61.97;;
9739;SDS011;4909;42.680;26.324;2024-03-23T01:28:22;122.93;;;61.80;;
9739;SDS011;4909;42.680;26.324;2024-03-23T01:30:49;115.03;;;60.07;;
9739;SDS011;4909;42.680;26.324;2024-03-23T01:33:16;117.40;;;60.87;;
9739;SDS011;4909;42.680;26.324;2024-03-23T01:35:42;117.03;;;60.77;;
9739;SDS011;4909;42.680;26.324;2024-03-23T01:38:09;117.10;;;60.73;;
9739;SDS011;4909;42.680;26.324;2024-03-23T01:40:35;116.70;;;60.43;;
9739;SDS011;4909;42.680;26.324;2024-03-23T01:43:04;120.67;;;61.63;;
9739;SDS011;4909;42.680;26.324;2024-03-23T01:45:31;103.93;;;58.90;;
9739;SDS011;4909;42.680;26.324;2024-03-23T01:47:58;94.47;;;57.67;;
9739;SDS011;4909;42.680;26.324;2024-03-23T01:50:24;97.37;;;57.30;;
9739;SDS011;4909;42.680;26.324;2024-03-23T01:52:52;108.40;;;59.30;;
9739;SDS011;4909;42.680;26.324;2024-03-23T01:55:18;113.60;;;60.33;;
9739;SDS011;4909;42.680;26.324;2024-03-23T01:57:45;120.57;;;61.03;;
9739;SDS011;4909;42.680;26.324;2024-03-23T02:00:13;122.50;;;62.07;;
9739;SDS011;4909;42.680;26.324;2024-03-23T02:02:42;121.50;;;60.60;;
9739;SDS011;4909;42.680;26.324;2024-03-23T02:05:09;113.17;;;61.37;;
9739;SDS011;4909;42.680;26.324;2024-03-23T02:07:36;121.23;;;60.73;;
9739;SDS011;4909;42.680;26.324;2024-03-23T02:10:03;123.03;;;61.47;;
9739;SDS011;4909;42.680;26.324;2024-03-23T02:12:31;123.97;;;60.90;;
9739;SDS011;4909;42.680;26.324;2024-03-23T02:14:57;125.27;;;60.83;;
9739;SDS011;4909;42.680;26.324;2024-03-23T02:17:25;126.47;;;61.90;;
9739;SDS011;4909;42.680;26.324;2024-03-23T02:19:51;127.00;;;61.97;;
9739;SDS011;4909;42.680;26.324;2024-03-23T02:22:18;131.30;;;64.77;;
9739;SDS011;4909;42.680;26.324;2024-03-23T02:24:45;130.23;;;64.00;;
9739;SDS011;4909;42.680;26.324;2024-03-23T02:27:12;128.33;;;63.23;;
9739;SDS011;4909;42.680;26.324;2024-03-23T02:29:38;126.57;;;62.30;;
9739;SDS011;4909;42.680;26.324;2024-03-23T02:32:05;127.17;;;61.50;;
9739;SDS011;4909;42.680;26.324;2024-03-23T02:34:34;129.40;;;63.07;;
9739;SDS011;4909;42.680;26.324;2024-03-23T02:37:01;131.70;;;64.80;;
9739;SDS011;4909;42.680;26.324;2024-03-23T02:39:27;128.70;;;63.47;;
9739;SDS011;4909;42.680;26.324;2024-03-23T02:41:55;124.00;;;62.13;;
9739;SDS011;4909;42.680;26.324;2024-03-23T02:44:21;128.50;;;63.70;;
9739;SDS011;4909;42.680;26.324;2024-03-23T02:46:48;130.77;;;64.73;;
9739;SDS011;4909;42.680;26.324;2024-03-23T02:49:14;129.00;;;65.13;;
9739;SDS011;4909;42.680;26.324;2024-03-23T02:51:41;132.53;;;64.93;;
9739;SDS011;4909;42.680;26.324;2024-03-23T02:54:07;133.97;;;65.87;;
9739;SDS011;4909;42.680;26.324;2024-03-23T02:56:34;130.97;;;66.43;;
9739;SDS011;4909;42.680;26.324;2024-03-23T02:59:01;124.73;;;62.23;;
9739;SDS011;4909;42.680;26.324;2024-03-23T03:01:28;129.97;;;63.27;;
9739;SDS011;4909;42.680;26.324;2024-03-23T03:03:54;129.90;;;63.70;;
9739;SDS011;4909;42.680;26.324;2024-03-23T03:06:24;127.40;;;62.73;;
9739;SDS011;4909;42.680;26.324;2024-03-23T03:08:51;127.30;;;62.87;;
9739;SDS011;4909;42.680;26.324;2024-03-23T03:11:18;124.47;;;61.43;;
9739;SDS011;4909;42.680;26.324;2024-03-23T03:13:44;118.30;;;60.27;;
9739;SDS011;4909;42.680;26.324;2024-03-23T03:16:12;121.80;;;61.43;;
9739;SDS011;4909;42.680;26.324;2024-03-23T03:18:38;123.13;;;59.10;;
9739;SDS011;4909;42.680;26.324;2024-03-23T03:21:05;121.77;;;60.77;;
9739;SDS011;4909;42.680;26.324;2024-03-23T03:23:36;121.47;;;59.40;;
9739;SDS011;4909;42.680;26.324;2024-03-23T03:26:04;121.00;;;58.83;;
9739;SDS011;4909;42.680;26.324;2024-03-23T03:28:30;122.93;;;60.67;;
9739;SDS011;4909;42.680;26.324;2024-03-23T03:30:58;120.97;;;59.60;;
9739;SDS011;4909;42.680;26.324;2024-03-23T03:33:25;123.77;;;60.33;;
9739;SDS011;4909;42.680;26.324;2024-03-23T03:35:52;120.37;;;60.20;;
9739;SDS011;4909;42.680;26.324;2024-03-23T03:38:18;124.60;;;61.37;;
9739;SDS011;4909;42.680;26.324;2024-03-23T03:40:46;126.27;;;61.53;;
9739;SDS011;4909;42.680;26.324;2024-03-23T03:43:11;128.97;;;62.37;;
9739;SDS011;4909;42.680;26.324;2024-03-23T03:45:38;120.47;;;60.57;;
9739;SDS011;4909;42.680;26.324;2024-03-23T03:48:05;120.70;;;60.70;;
9739;SDS011;4909;42.680;26.324;2024-03-23T03:50:34;121.13;;;60.83;;
9739;SDS011;4909;42.680;26.324;2024-03-23T03:53:00;123.93;;;60.87;;
9739;SDS011;4909;42.680;26.324;2024-03-23T03:55:27;125.63;;;60.83;;
9739;SDS011;4909;42.680;26.324;2024-03-23T03:57:53;125.60;;;61.00;;
9739;SDS011;4909;42.680;26.324;2024-03-23T04:00:20;120.97;;;59.67;;
9739;SDS011;4909;42.680;26.324;2024-03-23T04:02:46;120.87;;;58.70;;
9739;SDS011;4909;42.680;26.324;2024-03-23T04:05:13;123.33;;;61.17;;
9739;SDS011;4909;42.680;26.324;2024-03-23T04:07:41;121.20;;;59.93;;
9739;SDS011;4909;42.680;26.324;2024-03-23T04:10:09;122.20;;;60.27;;
9739;SDS011;4909;42.680;26.324;2024-03-23T04:12:35;123.90;;;61.03;;
9739;SDS011;4909;42.680;26.324;2024-03-23T04:15:02;108.47;;;56.83;;
9739;SDS011;4909;42.680;26.324;2024-03-23T04:17:29;117.57;;;59.87;;
9739;SDS011;4909;42.680;26.324;2024-03-23T04:19:59;121.60;;;60.53;;
9739;SDS011;4909;42.680;26.324;2024-03-23T04:22:25;121.67;;;61.27;;
9739;SDS011;4909;42.680;26.324;2024-03-23T04:24:54;123.30;;;60.57;;
9739;SDS011;4909;42.680;26.324;2024-03-23T04:27:21;123.07;;;60.40;;
9739;SDS011;4909;42.680;26.324;2024-03-23T04:29:48;125.27;;;63.50;;
9739;SDS011;4909;42.680;26.324;2024-03-23T04:32:15;124.63;;;61.20;;
9739;SDS011;4909;42.680;26.324;2024-03-23T04:34:42;120.53;;;60.03;;
9739;SDS011;4909;42.680;26.324;2024-03-23T04:37:09;121.00;;;60.63;;
9739;SDS011;4909;42.680;26.324;2024-03-23T04:39:36;120.60;;;61.00;;
9739;SDS011;4909;42.680;26.324;2024-03-23T04:42:05;122.57;;;60.80;;
9739;SDS011;4909;42.680;26.324;2024-03-23T04:44:32;115.67;;;60.67;;
9739;SDS011;4909;42.680;26.324;2024-03-23T04:46:59;116.80;;;59.63;;
9739;SDS011;4909;42.680;26.324;2024-03-23T04:49:26;118.73;;;61.93;;
9739;SDS011;4909;42.680;26.324;2024-03-23T04:51:54;120.17;;;61.93;;
9739;SDS011;4909;42.680;26.324;2024-03-23T04:54:19;120.20;;;61.53;;
9739;SDS011;4909;42.680;26.324;2024-03-23T04:56:46;119.87;;;61.30;;
9739;SDS011;4909;42.680;26.324;2024-03-23T04:59:14;121.27;;;62.73;;
9739;SDS011;4909;42.680;26.324;2024-03-23T05:01:41;121.67;;;61.83;;
9739;SDS011;4909;42.680;26.324;2024-03-23T05:04:08;130.90;;;64.13;;
9739;SDS011;4909;42.680;26.324;2024-03-23T05:06:34;130.00;;;64.17;;
9739;SDS011;4909;42.680;26.324;2024-03-23T05:09:01;129.60;;;63.10;;
9739;SDS011;4909;42.680;26.324;2024-03-23T05:11:31;126.13;;;64.83;;
9739;SDS011;4909;42.680;26.324;2024-03-23T05:13:57;125.80;;;65.33;;
9739;SDS011;4909;42.680;26.324;2024-03-23T05:16:25;129.17;;;67.63;;
9739;SDS011;4909;42.680;26.324;2024-03-23T05:18:51;131.13;;;68.50;;
9739;SDS011;4909;42.680;26.324;2024-03-23T05:21:18;130.00;;;67.57;;
9739;SDS011;4909;42.680;26.324;2024-03-23T05:23:44;131.23;;;67.80;;
9739;SDS011;4909;42.680;26.324;2024-03-23T05:26:11;130.17;;;67.60;;
9739;SDS011;4909;42.680;26.324;2024-03-23T05:28:37;130.13;;;67.20;;
9739;SDS011;4909;42.680;26.324;2024-03-23T05:31:04;132.43;;;67.20;;
9739;SDS011;4909;42.680;26.324;2024-03-23T05:33:31;135.10;;;68.03;;
9739;SDS011;4909;42.680;26.324;2024-03-23T05:35:59;140.40;;;68.57;;
9739;SDS011;4909;42.680;26.324;2024-03-23T05:38:27;138.93;;;70.03;;
9739;SDS011;4909;42.680;26.324;2024-03-23T05:40:54;146.40;;;71.47;;
9739;SDS011;4909;42.680;26.324;2024-03-23T05:43:20;148.03;;;71.67;;
9739;SDS011;4909;42.680;26.324;2024-03-23T05:45:53;143.77;;;69.70;;
9739;SDS011;4909;42.680;26.324;2024-03-23T05:48:19;147.63;;;73.03;;
9739;SDS011;4909;42.680;26.324;2024-03-23T05:50:47;145.27;;;72.53;;
9739;SDS011;4909;42.680;26.324;2024-03-23T05:53:14;144.50;;;73.60;;
9739;SDS011;4909;42.680;26.324;2024-03-23T05:55:41;143.33;;;71.30;;
9739;SDS011;4909;42.680;26.324;2024-03-23T05:58:07;144.67;;;71.67;;
9739;SDS011;4909;42.680;26.324;2024-03-23T06:00:35;151.63;;;73.80;;
9739;SDS011;4909;42.680;26.324;2024-03-23T06:03:01;145.00;;;73.07;;
9739;SDS011;4909;42.680;26.324;2024-03-23T06:05:28;154.73;;;74.67;;
9739;SDS011;4909;42.680;26.324;2024-03-23T06:07:55;160.80;;;76.43;;
9739;SDS011;4909;42.680;26.324;2024-03-23T06:10:22;177.77;;;85.53;;
9739;SDS011;4909;42.680;26.324;2024-03-23T06:12:48;198.83;;;93.77;;
9739;SDS011;4909;42.680;26.324;2024-03-23T06:15:17;223.50;;;98.87;;
9739;SDS011;4909;42.680;26.324;2024-03-23T06:17:43;257.83;;;111.37;;
9739;SDS011;4909;42.680;26.324;2024-03-23T06:20:10;279.20;;;126.03;;
9739;SDS011;4909;42.680;26.324;2024-03-23T06:22:36;281.47;;;138.07;;
9739;SDS011;4909;42.680;26.324;2024-03-23T06:25:05;291.03;;;147.97;;
9739;SDS011;4909;42.680;26.324;2024-03-23T06:27:31;303.23;;;156.07;;
9739;SDS011;4909;42.680;26.324;2024-03-23T06:29:58;312.57;;;169.17;;
9739;SDS011;4909;42.680;26.324;2024-03-23T06:32:24;315.40;;;170.80;;
9739;SDS011;4909;42.680;26.324;2024-03-23T06:34:51;326.07;;;190.10;;
9739;SDS011;4909;42.680;26.324;2024-03-23T06:37:17;325.17;;;192.13;;
9739;SDS011;4909;42.680;26.324;2024-03-23T06:39:45;332.73;;;202.23;;
9739;SDS011;4909;42.680;26.324;2024-03-23T06:42:13;331.83;;;218.37;;
9739;SDS011;4909;42.680;26.324;2024-03-23T06:44:40;327.03;;;236.97;;
9739;SDS011;4909;42.680;26.324;2024-03-23T06:47:06;341.77;;;257.27;;
9739;SDS011;4909;42.680;26.324;2024-03-23T06:49:33;344.70;;;267.90;;
9739;SDS011;4909;42.680;26.324;2024-03-23T06:51:59;345.43;;;272.57;;
9739;SDS011;4909;42.680;26.324;2024-03-23T06:54:26;349.93;;;296.40;;
9739;SDS011;4909;42.680;26.324;2024-03-23T06:56:52;353.20;;;308.73;;
9739;SDS011;4909;42.680;26.324;2024-03-23T06:59:20;352.20;;;308.53;;
9739;SDS011;4909;42.680;26.324;2024-03-23T07:01:46;353.73;;;310.57;;
9739;SDS011;4909;42.680;26.324;2024-03-23T07:04:13;357.13;;;317.87;;
9739;SDS011;4909;42.680;26.324;2024-03-23T07:06:42;348.60;;;298.30;;
9739;SDS011;4909;42.680;26.324;2024-03-23T07:09:10;348.67;;;308.23;;
9739;SDS011;4909;42.680;26.324;2024-03-23T07:11:36;353.40;;;306.13;;
9739;SDS011;4909;42.680;26.324;2024-03-23T07:14:03;350.50;;;301.23;;
9739;SDS011;4909;42.680;26.324;2024-03-23T07:16:30;362.10;;;322.43;;
9739;SDS011;4909;42.680;26.324;2024-03-23T07:18:57;456.97;;;415.50;;
9739;SDS011;4909;42.680;26.324;2024-03-23T07:21:24;387.80;;;348.07;;
9739;SDS011;4909;42.680;26.324;2024-03-23T07:23:50;412.93;;;372.13;;
9739;SDS011;4909;42.680;26.324;2024-03-23T07:26:16;402.30;;;362.10;;
9739;SDS011;4909;42.680;26.324;2024-03-23T07:28:44;405.90;;;365.80;;
9739;SDS011;4909;42.680;26.324;2024-03-23T07:31:11;424.73;;;384.37;;
9739;SDS011;4909;42.680;26.324;2024-03-23T07:33:43;434.30;;;393.80;;
9739;SDS011;4909;42.680;26.324;2024-03-23T07:36:11;442.73;;;402.27;;
9739;SDS011;4909;42.680;26.324;2024-03-23T07:38:40;450.47;;;409.90;;
9739;SDS011;4909;42.680;26.324;2024-03-23T07:41:06;425.37;;;384.80;;
9739;SDS011;4909;42.680;26.324;2024-03-23T07:43:34;437.87;;;397.37;;
9739;SDS011;4909;42.680;26.324;2024-03-23T07:46:00;439.70;;;399.03;;
9739;SDS011;4909;42.680;26.324;2024-03-23T07:48:28;439.60;;;399.10;;
9739;SDS011;4909;42.680;26.324;2024-03-23T07:51:00;438.70;;;398.43;;
9739;SDS011;4909;42.680;26.324;2024-03-23T07:53:27;414.00;;;373.87;;
9739;SDS011;4909;42.680;26.324;2024-03-23T07:55:54;413.73;;;373.63;;
9739;SDS011;4909;42.680;26.324;2024-03-23T07:58:22;428.33;;;387.93;;
9739;SDS011;4909;42.680;26.324;2024-03-23T08:00:48;423.03;;;382.70;;
9739;SDS011;4909;42.680;26.324;2024-03-23T08:03:15;430.70;;;390.23;;
9739;SDS011;4909;42.680;26.324;2024-03-23T08:05:41;449.37;;;408.90;;
9739;SDS011;4909;42.680;26.324;2024-03-23T08:08:09;465.63;;;424.80;;
9739;SDS011;4909;42.680;26.324;2024-03-23T08:10:36;475.03;;;434.17;;
9739;SDS011;4909;42.680;26.324;2024-03-23T08:13:03;477.57;;;436.77;;
9739;SDS011;4909;42.680;26.324;2024-03-23T08:15:30;485.80;;;444.70;;
9739;SDS011;4909;42.680;26.324;2024-03-23T08:17:59;479.33;;;438.17;;
9739;SDS011;4909;42.680;26.324;2024-03-23T08:20:25;464.50;;;423.77;;
9739;SDS011;4909;42.680;26.324;2024-03-23T08:22:52;472.17;;;431.33;;
9739;SDS011;4909;42.680;26.324;2024-03-23T08:25:19;477.40;;;436.50;;
9739;SDS011;4909;42.680;26.324;2024-03-23T08:27:46;472.67;;;431.90;;
9739;SDS011;4909;42.680;26.324;2024-03-23T08:30:12;493.97;;;452.57;;
9739;SDS011;4909;42.680;26.324;2024-03-23T08:32:40;490.80;;;449.43;;
9739;SDS011;4909;42.680;26.324;2024-03-23T08:35:07;489.20;;;447.90;;
9739;SDS011;4909;42.680;26.324;2024-03-23T08:37:35;502.40;;;460.83;;
9739;SDS011;4909;42.680;26.324;2024-03-23T08:40:01;513.60;;;471.87;;
9739;SDS011;4909;42.680;26.324;2024-03-23T08:42:31;498.70;;;457.30;;
9739;SDS011;4909;42.680;26.324;2024-03-23T08:44:57;520.37;;;478.73;;
9739;SDS011;4909;42.680;26.324;2024-03-23T08:47:24;513.43;;;471.73;;
9739;SDS011;4909;42.680;26.324;2024-03-23T08:49:50;504.30;;;462.73;;
9739;SDS011;4909;42.680;26.324;2024-03-23T08:52:17;497.90;;;456.47;;
9739;SDS011;4909;42.680;26.324;2024-03-23T08:54:43;474.90;;;433.93;;
9739;SDS011;4909;42.680;26.324;2024-03-23T08:57:11;474.20;;;432.77;;
9739;SDS011;4909;42.680;26.324;2024-03-23T08:59:38;463.00;;;422.30;;
9739;SDS011;4909;42.680;26.324;2024-03-23T09:02:05;462.00;;;420.90;;
9739;SDS011;4909;42.680;26.324;2024-03-23T09:04:31;445.97;;;405.20;;
9739;SDS011;4909;42.680;26.324;2024-03-23T09:06:58;437.97;;;397.03;;
9739;SDS011;4909;42.680;26.324;2024-03-23T09:09:25;413.47;;;373.20;;
9739;SDS011;4909;42.680;26.324;2024-03-23T09:11:52;397.70;;;357.63;;
9739;SDS011;4909;42.680;26.324;2024-03-23T09:14:18;416.87;;;376.30;;
9739;SDS011;4909;42.680;26.324;2024-03-23T09:16:49;401.93;;;361.63;;
9739;SDS011;4909;42.680;26.324;2024-03-23T09:19:16;408.77;;;368.57;;
9739;SDS011;4909;42.680;26.324;2024-03-23T09:21:43;425.50;;;384.40;;
9739;SDS011;4909;42.680;26.324;2024-03-23T09:24:09;412.03;;;371.67;;
9739;SDS011;4909;42.680;26.324;2024-03-23T09:26:36;393.50;;;353.60;;
9739;SDS011;4909;42.680;26.324;2024-03-23T09:29:02;387.27;;;347.57;;
9739;SDS011;4909;42.680;26.324;2024-03-23T09:31:29;372.90;;;333.73;;
9739;SDS011;4909;42.680;26.324;2024-03-23T09:33:58;376.83;;;337.73;;
9739;SDS011;4909;42.680;26.324;2024-03-23T09:36:25;360.13;;;322.10;;
9739;SDS011;4909;42.680;26.324;2024-03-23T09:38:51;349.73;;;312.20;;
9739;SDS011;4909;42.680;26.324;2024-03-23T09:41:18;350.67;;;313.43;;
9739;SDS011;4909;42.680;26.324;2024-03-23T09:43:43;344.13;;;307.23;;
9739;SDS011;4909;42.680;26.324;2024-03-23T09:46:13;329.43;;;293.07;;
9739;SDS011;4909;42.680;26.324;2024-03-23T09:48:39;320.60;;;285.10;;
9739;SDS011;4909;42.680;26.324;2024-03-23T09:51:08;313.93;;;268.93;;
9739;SDS011;4909;42.680;26.324;2024-03-23T09:53:34;314.00;;;270.23;;
9739;SDS011;4909;42.680;26.324;2024-03-23T09:56:01;313.37;;;275.83;;
9739;SDS011;4909;42.680;26.324;2024-03-23T09:58:29;321.37;;;286.17;;
9739;SDS011;4909;42.680;26.324;2024-03-23T10:00:57;312.93;;;272.33;;
9739;SDS011;4909;42.680;26.324;2024-03-23T10:03:23;428.57;;;389.03;;
9739;SDS011;4909;42.680;26.324;2024-03-23T10:05:59;308.07;;;270.43;;
9739;SDS011;4909;42.680;26.324;2024-03-23T10:08:27;307.00;;;258.73;;
9739;SDS011;4909;42.680;26.324;2024-03-23T10:10:56;308.70;;;262.50;;
9739;SDS011;4909;42.680;26.324;2024-03-23T10:13:25;307.33;;;255.97;;
9739;SDS011;4909;42.680;26.324;2024-03-23T10:15:55;302.03;;;249.37;;
9739;SDS011;4909;42.680;26.324;2024-03-23T10:18:22;297.23;;;246.97;;
9739;SDS011;4909;42.680;26.324;2024-03-23T10:20:51;296.50;;;254.83;;
9739;SDS011;4909;42.680;26.324;2024-03-23T10:23:23;292.67;;;242.67;;
9739;SDS011;4909;42.680;26.324;2024-03-23T10:25:51;296.53;;;253.67;;
9739;SDS011;4909;42.680;26.324;2024-03-23T10:28:17;290.67;;;247.83;;
9739;SDS011;4909;42.680;26.324;2024-03-23T10:30:44;287.63;;;241.30;;
9739;SDS011;4909;42.680;26.324;2024-03-23T10:33:10;291.40;;;241.03;;
9739;SDS011;4909;42.680;26.324;2024-03-23T10:35:38;293.80;;;249.43;;
9739;SDS011;4909;42.680;26.324;2024-03-23T10:38:06;284.07;;;233.73;;
9739;SDS011;4909;42.680;26.324;2024-03-23T10:40:34;284.37;;;238.97;;
9739;SDS011;4909;42.680;26.324;2024-03-23T10:43:02;292.90;;;249.03;;
9739;SDS011;4909;42.680;26.324;2024-03-23T10:45:30;290.47;;;243.20;;
9739;SDS011;4909;42.680;26.324;2024-03-23T10:47:56;303.63;;;259.03;;
9739;SDS011;4909;42.680;26.324;2024-03-23T10:50:23;334.17;;;300.67;;
9739;SDS011;4909;42.680;26.324;2024-03-23T10:52:49;341.67;;;306.77;;
9739;SDS011;4909;42.680;26.324;2024-03-23T10:55:20;339.53;;;304.37;;
9739;SDS011;4909;42.680;26.324;2024-03-23T10:57:49;326.83;;;292.13;;
9739;SDS011;4909;42.680;26.324;2024-03-23T11:00:21;343.37;;;310.03;;
9739;SDS011;4909;42.680;26.324;2024-03-23T11:02:48;354.20;;;318.03;;
9739;SDS011;4909;42.680;26.324;2024-03-23T11:05:28;380.57;;;343.83;;
9739;SDS011;4909;42.680;26.324;2024-03-23T11:07:55;463.30;;;424.87;;
9739;SDS011;4909;42.680;26.324;2024-03-23T11:10:26;491.33;;;450.80;;
9739;SDS011;4909;42.680;26.324;2024-03-23T11:12:53;328.37;;;296.27;;
9739;SDS011;4909;42.680;26.324;2024-03-23T11:15:23;458.27;;;418.43;;
9739;SDS011;4909;42.680;26.324;2024-03-23T11:18:02;463.37;;;423.53;;
9739;SDS011;4909;42.680;26.324;2024-03-23T11:20:33;435.30;;;396.77;;
9739;SDS011;4909;42.680;26.324;2024-03-23T11:22:59;485.20;;;444.93;;
9739;SDS011;4909;42.680;26.324;2024-03-23T11:25:27;511.00;;;469.80;;
9739;SDS011;4909;42.680;26.324;2024-03-23T11:27:55;486.37;;;446.17;;
9739;SDS011;4909;42.680;26.324;2024-03-23T11:30:25;461.80;;;422.07;;
9739;SDS011;4909;42.680;26.324;2024-03-23T11:32:52;295.50;;;241.80;;
9739;SDS011;4909;42.680;26.324;2024-03-23T11:35:27;303.03;;;245.87;;
9739;SDS011;4909;42.680;26.324;2024-03-23T11:38:03;300.77;;;244.30;;
9739;SDS011;4909;42.680;26.324;2024-03-23T11:40:31;295.13;;;247.13;;
9739;SDS011;4909;42.680;26.324;2024-03-23T11:42:58;298.17;;;238.07;;
9739;SDS011;4909;42.680;26.324;2024-03-23T11:45:29;302.80;;;245.07;;
9739;SDS011;4909;42.680;26.324;2024-03-23T11:48:06;307.10;;;258.60;;
9739;SDS011;4909;42.680;26.324;2024-03-23T11:50:36;298.83;;;240.63;;
9739;SDS011;4909;42.680;26.324;2024-03-23T11:53:06;292.33;;;239.97;;
9739;SDS011;4909;42.680;26.324;2024-03-23T11:55:41;294.63;;;236.70;;
9739;SDS011;4909;42.680;26.324;2024-03-23T11:58:08;287.83;;;234.30;;
9739;SDS011;4909;42.680;26.324;2024-03-23T12:00:36;293.03;;;241.77;;
9739;SDS011;4909;42.680;26.324;2024-03-23T12:03:03;294.57;;;245.10;;
9739;SDS011;4909;42.680;26.324;2024-03-23T12:05:30;293.47;;;243.47;;
9739;SDS011;4909;42.680;26.324;2024-03-23T12:10:43;282.57;;;244.13;;
9739;SDS011;4909;42.680;26.324;2024-03-23T12:13:14;272.63;;;217.60;;
9739;SDS011;4909;42.680;26.324;2024-03-23T12:15:43;279.50;;;221.47;;
9739;SDS011;4909;42.680;26.324;2024-03-23T12:18:10;275.97;;;218.60;;
9739;SDS011;4909;42.680;26.324;2024-03-23T12:20:38;279.63;;;210.73;;
9739;SDS011;4909;42.680;26.324;2024-03-23T12:23:05;286.33;;;219.37;;
9739;SDS011;4909;42.680;26.324;2024-03-23T12:25:33;285.23;;;221.23;;
9739;SDS011;4909;42.680;26.324;2024-03-23T12:27:59;282.73;;;221.83;;
9739;SDS011;4909;42.680;26.324;2024-03-23T12:30:26;282.97;;;238.53;;
9739;SDS011;4909;42.680;26.324;2024-03-23T12:32:54;282.43;;;225.70;;
9739;SDS011;4909;42.680;26.324;2024-03-23T12:35:21;280.90;;;224.07;;
9739;SDS011;4909;42.680;26.324;2024-03-23T12:37:47;281.00;;;216.70;;
9739;SDS011;4909;42.680;26.324;2024-03-23T12:40:14;288.00;;;237.03;;
9739;SDS011;4909;42.680;26.324;2024-03-23T12:42:40;287.70;;;225.47;;
9739;SDS011;4909;42.680;26.324;2024-03-23T12:45:08;289.50;;;228.90;;
9739;SDS011;4909;42.680;26.324;2024-03-23T12:47:34;287.17;;;230.03;;
9739;SDS011;4909;42.680;26.324;2024-03-23T12:50:03;290.03;;;235.50;;
9739;SDS011;4909;42.680;26.324;2024-03-23T12:52:29;287.77;;;230.70;;
9739;SDS011;4909;42.680;26.324;2024-03-23T12:54:56;281.73;;;226.53;;
9739;SDS011;4909;42.680;26.324;2024-03-23T12:57:22;286.87;;;228.13;;
9739;SDS011;4909;42.680;26.324;2024-03-23T12:59:50;284.97;;;228.50;;
9739;SDS011;4909;42.680;26.324;2024-03-23T13:02:18;284.20;;;228.77;;
9739;SDS011;4909;42.680;26.324;2024-03-23T13:04:46;287.17;;;224.33;;
9739;SDS011;4909;42.680;26.324;2024-03-23T13:07:16;281.17;;;216.97;;
9739;SDS011;4909;42.680;26.324;2024-03-23T13:09:43;282.10;;;219.57;;
9739;SDS011;4909;42.680;26.324;2024-03-23T13:12:09;282.60;;;226.10;;
9739;SDS011;4909;42.680;26.324;2024-03-23T13:14:37;280.10;;;229.43;;
9739;SDS011;4909;42.680;26.324;2024-03-23T13:17:03;278.50;;;224.90;;
9739;SDS011;4909;42.680;26.324;2024-03-23T13:19:31;275.17;;;220.63;;
9739;SDS011;4909;42.680;26.324;2024-03-23T13:21:57;278.17;;;219.30;;
9739;SDS011;4909;42.680;26.324;2024-03-23T13:24:26;277.27;;;221.17;;
9739;SDS011;4909;42.680;26.324;2024-03-23T13:26:53;273.63;;;210.43;;
9739;SDS011;4909;42.680;26.324;2024-03-23T13:29:21;274.77;;;222.43;;
9739;SDS011;4909;42.680;26.324;2024-03-23T13:31:48;277.40;;;217.93;;
9739;SDS011;4909;42.680;26.324;2024-03-23T13:34:15;273.40;;;215.80;;
9739;SDS011;4909;42.680;26.324;2024-03-23T13:36:42;276.50;;;221.17;;
9739;SDS011;4909;42.680;26.324;2024-03-23T13:39:09;277.63;;;224.23;;
9739;SDS011;4909;42.680;26.324;2024-03-23T13:41:38;276.13;;;212.80;;
9739;SDS011;4909;42.680;26.324;2024-03-23T13:44:06;279.73;;;222.67;;
9739;SDS011;4909;42.680;26.324;2024-03-23T13:46:32;272.40;;;215.10;;
9739;SDS011;4909;42.680;26.324;2024-03-23T13:48:59;275.83;;;212.40;;
9739;SDS011;4909;42.680;26.324;2024-03-23T13:51:26;270.57;;;216.30;;
9739;SDS011;4909;42.680;26.324;2024-03-23T13:53:53;268.03;;;213.23;;
9739;SDS011;4909;42.680;26.324;2024-03-23T13:56:19;273.70;;;218.67;;
9739;SDS011;4909;42.680;26.324;2024-03-23T13:58:48;266.73;;;213.27;;
9739;SDS011;4909;42.680;26.324;2024-03-23T14:01:14;262.90;;;213.30;;
9739;SDS011;4909;42.680;26.324;2024-03-23T14:03:41;267.87;;;221.00;;
9739;SDS011;4909;42.680;26.324;2024-03-23T14:06:08;265.27;;;207.57;;
9739;SDS011;4909;42.680;26.324;2024-03-23T14:08:35;267.93;;;213.63;;
9739;SDS011;4909;42.680;26.324;2024-03-23T14:11:04;264.07;;;197.33;;
9739;SDS011;4909;42.680;26.324;2024-03-23T14:13:31;265.23;;;213.20;;
9739;SDS011;4909;42.680;26.324;2024-03-23T14:15:58;261.30;;;195.50;;
9739;SDS011;4909;42.680;26.324;2024-03-23T14:18:25;262.20;;;206.43;;
9739;SDS011;4909;42.680;26.324;2024-03-23T14:20:52;262.60;;;211.03;;
9739;SDS011;4909;42.680;26.324;2024-03-23T14:23:23;259.33;;;203.40;;
9739;SDS011;4909;42.680;26.324;2024-03-23T14:25:49;269.77;;;212.80;;
9739;SDS011;4909;42.680;26.324;2024-03-23T14:28:16;262.67;;;198.30;;
9739;SDS011;4909;42.680;26.324;2024-03-23T14:30:42;265.33;;;201.23;;
9739;SDS011;4909;42.680;26.324;2024-03-23T14:33:10;270.30;;;211.87;;
9739;SDS011;4909;42.680;26.324;2024-03-23T14:35:38;265.60;;;207.80;;
9739;SDS011;4909;42.680;26.324;2024-03-23T14:38:05;262.33;;;211.13;;
9739;SDS011;4909;42.680;26.324;2024-03-23T14:40:31;261.73;;;205.30;;
9739;SDS011;4909;42.680;26.324;2024-03-23T14:42:58;258.23;;;200.43;;
9739;SDS011;4909;42.680;26.324;2024-03-23T14:45:24;267.63;;;207.33;;
9739;SDS011;4909;42.680;26.324;2024-03-23T14:47:51;258.03;;;202.00;;
9739;SDS011;4909;42.680;26.324;2024-03-23T14:50:18;261.23;;;199.60;;
9739;SDS011;4909;42.680;26.324;2024-03-23T14:52:46;259.27;;;198.00;;
9739;SDS011;4909;42.680;26.324;2024-03-23T14:55:12;253.87;;;201.00;;
9739;SDS011;4909;42.680;26.324;2024-03-23T14:57:40;256.87;;;196.27;;
9739;SDS011;4909;42.680;26.324;2024-03-23T15:00:07;256.00;;;197.43;;
9739;SDS011;4909;42.680;26.324;2024-03-23T15:02:36;254.53;;;199.77;;
9739;SDS011;4909;42.680;26.324;2024-03-23T15:05:02;249.43;;;190.67;;
9739;SDS011;4909;42.680;26.324;2024-03-23T15:07:31;252.37;;;197.30;;